Time;durP1;ratioP1;P1;durP2;ratioP2;P2;SDS_P1;SDS_P2;PMS_P1;PMS_P2;Temp;Humidity;BMP_temperature;BMP_pressure;BME280_temperature;BME280_humidity;BME280_pressure;Samples;Min_cycle;Max_cycle;Signal;HPM_P1;HPM_P2
2021/12/29 00:00:35;;;;;;;11.38;9.38;;;10.80;99.90;;;;;;2078783;28;20021;-73
2021/12/29 00:01:35;;;;;;;9.60;8.80;;;10.80;99.90;;;;;;2077846;28;20026;-73
2021/12/29 00:02:36;;;;;;;10.73;9.20;;;10.80;99.90;;;;;;2078866;28;20053;-73
2021/12/29 00:03:36;;;;;;;9.90;9.00;;;10.80;99.90;;;;;;2079543;28;20010;-73
2021/12/29 00:04:37;;;;;;;10.05;9.00;;;10.80;99.90;;;;;;2075205;28;20081;-73
2021/12/29 00:05:38;;;;;;;9.63;8.82;;;10.80;99.90;;;;;;2078625;28;20084;-73
2021/12/29 00:06:38;;;;;;;10.02;9.02;;;10.80;99.90;;;;;;2078626;28;20063;-73
2021/12/29 00:07:39;;;;;;;9.23;8.30;;;10.80;99.90;;;;;;2078259;28;20026;-73
2021/12/29 00:08:39;;;;;;;9.10;8.30;;;10.70;99.90;;;;;;2079504;28;20049;-73
2021/12/29 00:09:40;;;;;;;10.30;9.18;;;10.70;99.90;;;;;;2079343;28;20392;-73
2021/12/29 00:10:41;;;;;;;10.50;9.45;;;10.80;99.90;;;;;;2078692;28;20029;-73
2021/12/29 00:11:42;;;;;;;9.30;8.50;;;10.80;99.90;;;;;;2083375;28;20029;-73
2021/12/29 00:12:47;;;;;;;10.20;9.20;;;10.80;99.90;;;;;;2081820;28;20473;-73
2021/12/29 00:13:47;;;;;;;11.40;8.82;;;10.80;99.90;;;;;;2072735;28;20037;-73
2021/12/29 00:14:48;;;;;;;9.90;9.07;;;10.80;99.90;;;;;;2075871;28;20100;-73
2021/12/29 00:15:56;;;;;;;10.45;9.40;;;10.80;99.90;;;;;;2080824;28;20032;-73
2021/12/29 00:16:58;;;;;;;10.98;8.18;;;10.70;99.90;;;;;;2080076;28;20034;-73
2021/12/29 00:17:59;;;;;;;9.75;8.63;;;10.80;99.90;;;;;;2079835;28;20040;-73
2021/12/29 00:19:00;;;;;;;9.43;8.63;;;10.70;99.90;;;;;;2088579;28;20025;-73
2021/12/29 00:20:01;;;;;;;10.00;9.02;;;10.80;99.90;;;;;;2080820;28;20166;-73
2021/12/29 00:21:04;;;;;;;10.45;9.32;;;10.80;99.90;;;;;;2080547;28;20037;-73
2021/12/29 00:22:05;;;;;;;8.85;8.02;;;10.80;99.90;;;;;;2080321;28;20025;-73
2021/12/29 00:23:07;;;;;;;8.60;7.78;;;10.80;99.90;;;;;;2081077;28;20033;-73
2021/12/29 00:24:08;;;;;;;8.95;8.23;;;10.80;99.90;;;;;;2080831;28;20022;-73
2021/12/29 00:25:10;;;;;;;8.98;7.60;;;10.80;99.90;;;;;;2081125;28;20025;-73
2021/12/29 00:26:12;;;;;;;8.27;7.30;;;10.80;99.90;;;;;;2080755;28;20066;-73
2021/12/29 00:27:13;;;;;;;7.78;7.05;;;10.80;99.90;;;;;;2080904;28;20014;-73
2021/12/29 00:28:14;;;;;;;8.95;7.55;;;10.80;99.90;;;;;;2074319;28;20070;-73
2021/12/29 00:29:16;;;;;;;8.80;6.93;;;10.80;99.90;;;;;;2077897;28;20393;-73
2021/12/29 00:30:16;;;;;;;7.32;6.72;;;10.80;99.90;;;;;;2088866;28;20029;-73
2021/12/29 00:31:17;;;;;;;7.55;6.95;;;10.80;99.90;;;;;;2088872;28;20029;-73
2021/12/29 00:32:18;;;;;;;7.85;7.10;;;10.80;99.90;;;;;;2083939;28;20029;-73
2021/12/29 00:33:18;;;;;;;8.68;7.97;;;10.80;99.90;;;;;;2089080;28;20087;-73
2021/12/29 00:34:20;;;;;;;9.05;8.15;;;10.80;99.90;;;;;;2088778;28;20044;-72
2021/12/29 00:35:20;;;;;;;8.98;8.13;;;10.80;99.90;;;;;;2083206;28;20075;-73
2021/12/29 00:36:21;;;;;;;9.43;8.63;;;10.80;99.90;;;;;;2087071;28;20094;-73
2021/12/29 00:37:22;;;;;;;9.13;8.23;;;10.90;99.90;;;;;;2080587;28;20037;-72
2021/12/29 00:38:23;;;;;;;8.75;7.95;;;10.90;99.90;;;;;;2080838;28;20036;-73
2021/12/29 00:39:24;;;;;;;8.27;7.50;;;10.80;99.90;;;;;;2082267;28;20469;-73
2021/12/29 00:40:24;;;;;;;8.52;7.80;;;10.90;99.90;;;;;;2088430;28;20450;-73
2021/12/29 00:41:25;;;;;;;9.23;8.30;;;10.80;99.90;;;;;;2079634;28;20412;-73
2021/12/29 00:42:26;;;;;;;9.30;8.45;;;10.90;99.90;;;;;;2078492;28;20112;-73
2021/12/29 00:43:26;;;;;;;9.57;8.77;;;10.90;99.90;;;;;;2080801;28;20032;-73
2021/12/29 00:44:27;;;;;;;10.40;9.05;;;10.90;99.90;;;;;;2080955;28;20053;-73
2021/12/29 00:45:31;;;;;;;9.85;9.05;;;10.80;99.90;;;;;;2080594;28;20029;-72
2021/12/29 00:46:32;;;;;;;10.30;9.30;;;10.90;99.90;;;;;;2080600;28;20028;-73
2021/12/29 00:47:35;;;;;;;10.38;9.43;;;10.80;99.90;;;;;;2080776;28;20516;-73
2021/12/29 00:48:39;;;;;;;9.90;9.00;;;10.80;99.90;;;;;;2080805;28;20172;-73
2021/12/29 00:49:41;;;;;;;10.45;9.45;;;10.80;99.90;;;;;;2080638;28;20083;-73
2021/12/29 00:50:41;;;;;;;10.30;9.50;;;10.80;99.90;;;;;;2080767;28;20056;-73
2021/12/29 00:51:42;;;;;;;10.75;9.85;;;10.80;99.90;;;;;;2080717;28;20087;-73
2021/12/29 00:52:45;;;;;;;10.85;9.95;;;10.80;99.90;;;;;;2081933;28;20018;-73
2021/12/29 00:53:46;;;;;;;10.32;9.10;;;10.80;99.90;;;;;;2083950;28;21068;-73
2021/12/29 00:54:46;;;;;;;10.77;9.68;;;10.80;99.90;;;;;;2079154;28;20410;-73
2021/12/29 00:55:47;;;;;;;10.40;9.40;;;10.80;99.90;;;;;;2074940;28;20030;-73
2021/12/29 00:56:47;;;;;;;10.02;9.13;;;10.80;99.90;;;;;;2090195;28;20082;-72
2021/12/29 00:57:51;;;;;;;10.85;9.68;;;10.80;99.90;;;;;;2082038;28;20030;-73
2021/12/29 00:58:51;;;;;;;10.43;9.43;;;10.80;99.90;;;;;;2083487;28;20021;-72
2021/12/29 00:59:52;;;;;;;10.13;9.13;;;10.80;99.90;;;;;;2088435;28;20052;-72
2021/12/29 01:00:53;;;;;;;10.43;9.32;;;10.80;99.90;;;;;;2083168;28;20021;-72
2021/12/29 01:01:54;;;;;;;9.98;9.07;;;10.80;99.90;;;;;;2079626;28;20024;-73
2021/12/29 01:02:54;;;;;;;10.95;9.52;;;10.80;99.90;;;;;;2074342;28;20197;-72
2021/12/29 01:03:56;;;;;;;10.07;9.18;;;10.80;99.90;;;;;;2079070;28;20367;-73
2021/12/29 01:04:56;;;;;;;10.10;9.18;;;10.80;99.90;;;;;;2080159;28;20110;-72
2021/12/29 01:05:57;;;;;;;9.88;8.93;;;10.80;99.90;;;;;;2073175;28;20029;-73
2021/12/29 01:06:58;;;;;;;10.88;9.20;;;10.80;99.90;;;;;;2082568;28;20025;-73
2021/12/29 01:07:58;;;;;;;11.00;10.10;;;10.80;99.90;;;;;;2087911;28;20024;-72
2021/12/29 01:08:59;;;;;;;10.93;9.93;;;10.80;99.90;;;;;;2088514;28;20025;-73
2021/12/29 01:10:00;;;;;;;11.20;10.18;;;10.80;99.90;;;;;;2087716;28;20068;-72
2021/12/29 01:11:01;;;;;;;12.80;11.52;;;10.80;99.90;;;;;;2082545;28;20040;-73
2021/12/29 01:12:02;;;;;;;10.90;10.00;;;10.80;99.90;;;;;;2079614;28;20041;-72
2021/12/29 01:13:03;;;;;;;12.07;10.98;;;10.80;99.90;;;;;;2082336;28;20022;-73
2021/12/29 01:14:04;;;;;;;12.65;11.38;;;10.80;99.90;;;;;;2080756;28;20033;-72
2021/12/29 01:15:07;;;;;;;13.70;11.77;;;10.70;99.90;;;;;;2079499;28;20064;-73
2021/12/29 01:17:09;;;;;;;12.68;11.40;;;10.80;99.90;;;;;;2088186;28;20043;-72
2021/12/29 01:18:09;;;;;;;11.15;10.20;;;10.80;99.90;;;;;;2080177;28;20026;-73
2021/12/29 01:19:18;;;;;;;12.15;11.05;;;10.70;99.90;;;;;;2080381;28;20064;-72
2021/12/29 01:20:19;;;;;;;12.20;11.00;;;10.80;99.90;;;;;;2079505;28;20072;-72
2021/12/29 01:21:20;;;;;;;12.73;11.35;;;10.70;99.90;;;;;;2084784;28;20029;-73
2021/12/29 01:22:21;;;;;;;12.15;11.05;;;10.80;99.90;;;;;;2088159;28;20084;-73
2021/12/29 01:23:23;;;;;;;12.60;11.50;;;10.80;99.90;;;;;;2088148;28;20021;-72
2021/12/29 01:24:26;;;;;;;12.75;11.45;;;10.80;99.90;;;;;;2086907;28;20021;-72
2021/12/29 01:25:29;;;;;;;13.27;12.02;;;10.70;99.90;;;;;;2080360;28;20018;-72
2021/12/29 01:26:29;;;;;;;12.63;11.38;;;10.70;99.90;;;;;;2080120;28;20033;-72
2021/12/29 01:27:30;;;;;;;12.60;11.50;;;10.70;99.90;;;;;;2079961;28;20510;-73
2021/12/29 01:28:31;;;;;;;14.15;11.38;;;10.70;99.90;;;;;;2078129;28;20053;-72
2021/12/29 01:29:31;;;;;;;14.45;11.75;;;10.80;99.90;;;;;;2085054;28;20029;-72
2021/12/29 01:30:32;;;;;;;16.60;12.45;;;10.80;99.90;;;;;;2088618;28;20147;-72
2021/12/29 01:31:33;;;;;;;13.80;12.60;;;10.80;99.90;;;;;;2088583;28;20064;-73
2021/12/29 01:32:34;;;;;;;14.35;12.70;;;10.70;99.90;;;;;;2088006;28;20029;-72
2021/12/29 01:33:34;;;;;;;13.23;11.52;;;10.70;99.90;;;;;;2084537;28;20036;-72
2021/12/29 01:34:35;;;;;;;13.15;11.88;;;10.80;99.90;;;;;;2080349;28;20033;-72
2021/12/29 01:35:40;;;;;;;13.43;11.90;;;10.80;99.90;;;;;;2080274;28;20021;-72
2021/12/29 01:36:41;;;;;;;12.85;11.50;;;10.80;99.90;;;;;;2079940;28;20018;-72
2021/12/29 01:37:42;;;;;;;13.60;11.25;;;10.80;99.90;;;;;;2080139;28;20105;-72
2021/12/29 01:38:43;;;;;;;12.15;10.75;;;10.80;99.90;;;;;;2080245;28;20032;-72
2021/12/29 01:39:43;;;;;;;11.65;10.48;;;10.80;99.90;;;;;;2082344;28;20025;-72
2021/12/29 01:40:48;;;;;;;11.68;10.48;;;10.80;99.90;;;;;;2080218;28;20033;-72
2021/12/29 01:41:51;;;;;;;10.82;9.75;;;10.80;99.90;;;;;;2080175;28;20017;-73
2021/12/29 01:42:51;;;;;;;11.20;10.05;;;10.80;99.90;;;;;;2079626;28;20097;-72
2021/12/29 01:43:52;;;;;;;12.82;9.80;;;10.80;99.90;;;;;;2080075;28;20022;-72
2021/12/29 01:44:53;;;;;;;10.52;9.48;;;10.80;99.90;;;;;;2079611;28;20477;-72
2021/12/29 01:45:54;;;;;;;10.02;8.88;;;10.80;99.90;;;;;;2070822;28;20022;-72
2021/12/29 01:46:56;;;;;;;10.60;9.25;;;10.80;99.90;;;;;;2079639;28;20022;-72
2021/12/29 01:47:56;;;;;;;9.52;8.57;;;10.80;99.90;;;;;;2079943;28;20021;-72
2021/12/29 01:48:57;;;;;;;10.85;8.57;;;10.80;99.90;;;;;;2084578;28;20108;-72
2021/12/29 01:50:01;;;;;;;10.80;8.60;;;10.80;99.90;;;;;;2088451;28;20040;-72
2021/12/29 01:51:02;;;;;;;8.82;7.88;;;10.80;99.90;;;;;;2088342;28;20035;-73
2021/12/29 01:52:10;;;;;;;10.15;8.15;;;10.80;99.90;;;;;;2087382;28;20032;-72
2021/12/29 01:53:21;;;;;;;10.48;8.38;;;10.80;99.90;;;;;;2079240;28;20026;-72
2021/12/29 01:54:25;;;;;;;8.40;7.30;;;10.80;99.90;;;;;;2072023;28;20026;-73
2021/12/29 01:55:27;;;;;;;8.00;7.22;;;10.80;99.90;;;;;;2077541;28;20144;-72
2021/12/29 01:56:29;;;;;;;8.68;7.88;;;10.80;99.90;;;;;;2087542;28;20143;-72
2021/12/29 01:57:29;;;;;;;10.52;7.60;;;10.90;99.90;;;;;;2095004;28;20028;-73
2021/12/29 01:58:30;;;;;;;8.60;7.75;;;10.80;99.90;;;;;;2088561;28;20075;-72
2021/12/29 01:59:31;;;;;;;7.82;7.13;;;10.80;99.90;;;;;;2088251;28;20602;-72
2021/12/29 02:00:35;;;;;;;8.30;7.45;;;10.80;99.90;;;;;;2088707;28;20532;-72
2021/12/29 02:01:36;;;;;;;9.00;7.40;;;10.80;99.90;;;;;;2087905;28;20230;-73
2021/12/29 02:02:36;;;;;;;8.30;7.13;;;10.80;99.90;;;;;;2074923;28;20018;-73
2021/12/29 02:03:37;;;;;;;9.38;8.10;;;10.80;99.90;;;;;;2077328;28;20021;-72
2021/12/29 02:04:38;;;;;;;10.50;6.95;;;10.80;99.90;;;;;;2075367;28;20029;-72
2021/12/29 02:05:41;;;;;;;7.40;6.20;;;10.80;99.90;;;;;;2071991;28;20026;-72
2021/12/29 02:06:41;;;;;;;8.35;6.65;;;10.80;99.90;;;;;;2075128;28;20013;-72
2021/12/29 02:07:42;;;;;;;8.18;7.32;;;10.80;99.90;;;;;;2080021;28;20041;-72
2021/12/29 02:08:43;;;;;;;7.85;6.38;;;10.80;99.90;;;;;;2078979;28;20025;-73
2021/12/29 02:09:44;;;;;;;9.05;7.10;;;10.80;99.90;;;;;;2081238;28;20101;-73
2021/12/29 02:10:46;;;;;;;7.25;6.38;;;10.80;99.90;;;;;;2088254;28;20096;-72
2021/12/29 02:11:47;;;;;;;6.65;5.97;;;10.80;99.90;;;;;;2079228;28;20036;-72
2021/12/29 02:12:48;;;;;;;7.68;6.15;;;10.80;99.90;;;;;;2077917;28;20077;-72
2021/12/29 02:13:48;;;;;;;6.05;5.43;;;10.80;99.90;;;;;;2078707;28;20105;-72
2021/12/29 02:14:49;;;;;;;8.82;5.65;;;10.80;99.90;;;;;;2076748;28;20030;-72
2021/12/29 02:15:49;;;;;;;7.60;5.50;;;10.80;99.90;;;;;;2078763;28;20039;-72
2021/12/29 02:16:51;;;;;;;8.63;5.63;;;10.80;99.90;;;;;;2079774;28;20044;-72
2021/12/29 02:17:52;;;;;;;10.55;6.15;;;10.80;99.90;;;;;;2082274;28;20025;-72
2021/12/29 02:18:58;;;;;;;6.65;5.53;;;10.80;99.90;;;;;;2088223;28;20021;-73
2021/12/29 02:20:01;;;;;;;6.55;5.05;;;10.80;99.90;;;;;;2081124;28;20036;-73
2021/12/29 02:21:02;;;;;;;6.82;4.88;;;10.80;99.90;;;;;;2076236;28;20505;-73
2021/12/29 02:22:09;;;;;;;7.55;5.50;;;10.80;99.90;;;;;;2095771;28;20408;-73
2021/12/29 02:23:16;;;;;;;5.78;4.95;;;10.80;99.90;;;;;;2084199;28;20082;-72
2021/12/29 02:24:19;;;;;;;8.02;5.43;;;10.70;99.90;;;;;;2078655;28;20139;-72
2021/12/29 02:25:33;;;;;;;6.22;5.63;;;10.70;99.90;;;;;;2079303;28;20107;-72
2021/12/29 02:26:36;;;;;;;9.88;5.65;;;10.80;99.90;;;;;;2079713;28;20048;-73
2021/12/29 02:27:37;;;;;;;6.63;5.60;;;10.70;99.90;;;;;;2079988;28;20385;-72
2021/12/29 02:28:41;;;;;;;7.22;5.50;;;10.70;99.90;;;;;;2079502;28;20033;-73
2021/12/29 02:29:42;;;;;;;6.70;5.80;;;10.70;99.90;;;;;;2085158;28;20017;-72
2021/12/29 02:30:43;;;;;;;6.70;6.00;;;10.70;99.90;;;;;;2081994;28;20105;-72
2021/12/29 02:31:45;;;;;;;8.43;6.32;;;10.70;99.90;;;;;;2080012;28;20040;-72
2021/12/29 02:32:46;;;;;;;6.97;5.78;;;10.80;99.90;;;;;;2079171;28;20491;-72
2021/12/29 02:33:47;;;;;;;7.63;6.03;;;10.70;99.90;;;;;;2079643;28;20033;-72
2021/12/29 02:34:47;;;;;;;7.45;6.60;;;10.70;99.90;;;;;;2078765;28;20465;-72
2021/12/29 02:35:48;;;;;;;5.95;5.45;;;10.70;99.90;;;;;;2079098;28;20029;-72
2021/12/29 02:36:49;;;;;;;7.53;6.03;;;10.80;99.90;;;;;;2079794;28;20024;-72
2021/12/29 02:37:49;;;;;;;7.10;6.30;;;10.80;99.90;;;;;;2079557;28;20485;-73
2021/12/29 02:38:53;;;;;;;7.13;6.03;;;10.80;99.90;;;;;;2081827;28;20101;-72
2021/12/29 02:39:54;;;;;;;6.38;5.78;;;10.80;99.90;;;;;;2088129;28;20109;-72
2021/12/29 02:40:58;;;;;;;8.60;6.10;;;10.70;99.90;;;;;;2087559;28;20025;-72
2021/12/29 02:42:04;;;;;;;9.35;6.35;;;10.70;99.90;;;;;;2084268;28;20473;-72
2021/12/29 02:43:06;;;;;;;7.63;6.22;;;10.70;99.90;;;;;;2087281;28;20059;-72
2021/12/29 02:44:10;;;;;;;7.70;6.10;;;10.70;99.90;;;;;;2084710;28;20029;-72
2021/12/29 02:45:18;;;;;;;10.95;6.78;;;10.70;99.90;;;;;;2079328;28;20021;-72
2021/12/29 02:46:18;;;;;;;6.43;5.82;;;10.80;99.90;;;;;;2077975;28;20381;-72
2021/12/29 02:47:20;;;;;;;7.88;6.18;;;10.80;99.90;;;;;;2079405;28;20045;-72
2021/12/29 02:48:23;;;;;;;7.03;5.97;;;10.80;99.90;;;;;;2077600;28;20064;-72
2021/12/29 02:49:26;;;;;;;8.00;5.78;;;10.80;99.90;;;;;;2073733;28;20033;-72
2021/12/29 02:50:27;;;;;;;6.93;5.32;;;10.80;99.90;;;;;;2087848;28;20064;-72
2021/12/29 02:51:29;;;;;;;7.80;5.10;;;10.80;99.90;;;;;;2087152;28;20497;-72
2021/12/29 02:52:30;;;;;;;5.45;4.80;;;10.80;99.90;;;;;;2083243;28;20020;-72
2021/12/29 02:53:31;;;;;;;7.45;5.15;;;10.80;99.90;;;;;;2078220;28;20076;-72
2021/12/29 02:54:32;;;;;;;6.20;4.95;;;10.80;99.90;;;;;;2079839;28;20083;-72
2021/12/29 02:55:33;;;;;;;5.82;5.05;;;10.80;99.90;;;;;;2079597;28;20030;-72
2021/12/29 02:56:34;;;;;;;6.75;5.30;;;10.80;99.90;;;;;;2080459;28;20029;-72
2021/12/29 02:57:34;;;;;;;6.93;4.93;;;10.80;99.90;;;;;;2086360;28;20025;-72
2021/12/29 02:58:35;;;;;;;6.22;5.20;;;10.80;99.90;;;;;;2079911;28;20025;-72
2021/12/29 02:59:36;;;;;;;7.07;4.97;;;10.80;99.90;;;;;;2075586;28;20022;-72
2021/12/29 03:00:37;;;;;;;6.00;5.38;;;10.80;99.90;;;;;;2080501;28;20071;-72
2021/12/29 03:01:37;;;;;;;7.30;5.30;;;10.80;99.90;;;;;;2079424;28;20105;-72
2021/12/29 03:02:38;;;;;;;6.18;5.20;;;10.80;99.90;;;;;;2076633;28;20021;-72
2021/12/29 03:03:39;;;;;;;9.55;5.72;;;10.80;99.90;;;;;;2081241;28;20044;-72
2021/12/29 03:04:39;;;;;;;8.32;5.35;;;10.80;99.90;;;;;;2077472;28;20014;-73
2021/12/29 03:05:40;;;;;;;6.15;5.10;;;10.80;99.90;;;;;;2081880;28;20059;-72
2021/12/29 03:06:41;;;;;;;9.05;6.05;;;10.80;99.90;;;;;;2084353;28;20017;-72
2021/12/29 03:07:41;;;;;;;6.10;5.47;;;10.80;99.90;;;;;;2096875;28;20091;-73
2021/12/29 03:08:42;;;;;;;10.48;6.15;;;10.80;99.90;;;;;;2088066;28;20031;-72
2021/12/29 03:09:43;;;;;;;6.95;5.57;;;10.80;99.90;;;;;;2078152;28;20018;-72
2021/12/29 03:10:45;;;;;;;8.38;6.00;;;10.80;99.90;;;;;;2079607;28;20113;-72
2021/12/29 03:11:46;;;;;;;6.95;4.93;;;10.80;99.90;;;;;;2081095;28;20477;-72
2021/12/29 03:12:47;;;;;;;7.35;5.10;;;10.80;99.90;;;;;;2081330;28;20026;-72
2021/12/29 03:13:48;;;;;;;5.35;4.30;;;10.80;99.90;;;;;;2089153;28;20045;-72
2021/12/29 03:14:51;;;;;;;6.57;4.30;;;10.80;99.90;;;;;;2077370;28;20017;-72
2021/12/29 03:15:52;;;;;;;6.53;4.80;;;10.80;99.90;;;;;;2080731;28;20041;-72
2021/12/29 03:16:53;;;;;;;5.68;4.53;;;10.80;99.90;;;;;;2080869;28;20105;-73
2021/12/29 03:17:54;;;;;;;8.23;4.85;;;10.90;99.90;;;;;;2080938;28;20018;-72
2021/12/29 03:18:54;;;;;;;7.53;4.38;;;10.80;99.90;;;;;;2078392;28;20377;-72
2021/12/29 03:19:55;;;;;;;4.68;3.97;;;10.80;99.90;;;;;;2080260;28;20017;-73
2021/12/29 03:20:56;;;;;;;3.90;3.58;;;10.80;99.90;;;;;;2073287;28;20508;-73
2021/12/29 03:21:56;;;;;;;9.13;4.95;;;10.90;99.90;;;;;;2081014;28;20026;-72
2021/12/29 03:22:58;;;;;;;4.70;4.30;;;10.80;99.90;;;;;;2080270;28;20101;-72
2021/12/29 03:23:59;;;;;;;5.32;4.70;;;10.90;99.90;;;;;;2080779;28;20357;-72
2021/12/29 03:24:59;;;;;;;5.85;4.35;;;10.90;99.90;;;;;;2079741;28;20021;-73
2021/12/29 03:26:01;;;;;;;6.10;4.93;;;10.90;99.90;;;;;;2082367;28;20365;-72
2021/12/29 03:27:02;;;;;;;4.95;4.50;;;10.90;99.90;;;;;;2080321;28;20381;-72
2021/12/29 03:28:04;;;;;;;6.57;4.82;;;10.90;99.90;;;;;;2087158;28;20074;-72
2021/12/29 03:29:05;;;;;;;6.40;4.88;;;10.90;99.90;;;;;;2088160;28;20520;-72
2021/12/29 03:30:06;;;;;;;6.88;4.93;;;10.90;99.90;;;;;;2088669;28;20497;-72
2021/12/29 03:31:11;;;;;;;5.90;5.03;;;10.90;99.90;;;;;;2088779;28;20021;-72
2021/12/29 03:32:21;;;;;;;6.43;5.40;;;10.80;99.90;;;;;;2088999;28;20025;-74
2021/12/29 03:33:24;;;;;;;6.63;5.68;;;10.80;99.90;;;;;;2085189;28;20113;-72
2021/12/29 03:34:25;;;;;;;6.95;5.78;;;10.80;99.90;;;;;;2086330;28;20029;-72
2021/12/29 03:35:25;;;;;;;7.90;6.35;;;10.80;99.90;;;;;;2088953;28;20088;-72
2021/12/29 03:36:28;;;;;;;9.02;7.00;;;10.80;99.90;;;;;;2089015;28;20440;-72
2021/12/29 03:37:28;;;;;;;6.88;6.25;;;10.80;99.90;;;;;;2096551;28;20020;-72
2021/12/29 03:38:32;;;;;;;9.02;7.05;;;10.80;99.90;;;;;;2094916;28;20063;-72
2021/12/29 03:39:38;;;;;;;8.38;7.28;;;10.80;99.90;;;;;;2080372;28;20120;-73
2021/12/29 03:40:41;;;;;;;9.05;7.43;;;10.80;99.90;;;;;;2080830;28;20053;-72
2021/12/29 03:41:41;;;;;;;8.32;7.50;;;10.80;99.90;;;;;;2087869;28;20592;-73
2021/12/29 03:42:42;;;;;;;10.85;8.55;;;10.80;99.90;;;;;;2094656;28;20401;-73
2021/12/29 03:43:43;;;;;;;9.60;8.80;;;10.80;99.90;;;;;;2088204;28;20465;-72
2021/12/29 03:44:44;;;;;;;10.20;9.07;;;10.80;99.90;;;;;;2088226;28;20025;-72
2021/12/29 03:45:47;;;;;;;9.57;8.07;;;10.80;99.90;;;;;;2093064;28;20052;-72
2021/12/29 03:46:47;;;;;;;10.55;9.45;;;10.80;99.90;;;;;;2088756;28;20013;-72
2021/12/29 03:47:48;;;;;;;13.25;9.85;;;10.80;99.90;;;;;;2089442;28;20025;-72
2021/12/29 03:48:49;;;;;;;11.15;9.90;;;10.80;99.90;;;;;;2082365;28;20042;-72
2021/12/29 03:49:49;;;;;;;11.13;10.02;;;10.80;99.90;;;;;;2082444;28;20014;-72
2021/12/29 03:50:50;;;;;;;12.00;10.70;;;10.80;99.90;;;;;;2082292;28;20350;-72
2021/12/29 03:51:51;;;;;;;12.77;11.48;;;10.80;99.90;;;;;;2082265;28;20446;-72
2021/12/29 03:52:51;;;;;;;11.90;10.80;;;10.80;99.90;;;;;;2081780;28;20096;-72
2021/12/29 03:53:52;;;;;;;13.18;11.82;;;10.80;99.90;;;;;;2087172;28;20170;-73
2021/12/29 03:54:52;;;;;;;12.40;11.20;;;10.80;99.90;;;;;;2089939;28;20032;-73
2021/12/29 03:55:53;;;;;;;13.00;11.73;;;10.80;99.90;;;;;;2083189;28;20072;-72
2021/12/29 03:56:54;;;;;;;13.00;11.70;;;10.80;99.90;;;;;;2082165;28;20045;-72
2021/12/29 03:57:55;;;;;;;13.00;11.73;;;10.80;99.90;;;;;;2082331;28;20041;-73
2021/12/29 03:58:55;;;;;;;13.68;12.27;;;10.80;99.90;;;;;;2082246;28;20036;-72
2021/12/29 03:59:56;;;;;;;13.25;11.95;;;10.80;99.90;;;;;;2082169;28;20452;-72
2021/12/29 04:01:01;;;;;;;13.63;12.35;;;10.80;99.90;;;;;;2089544;28;20021;-72
2021/12/29 04:02:01;;;;;;;12.35;11.15;;;10.80;99.90;;;;;;2088203;28;20033;-72
2021/12/29 04:03:03;;;;;;;13.18;11.85;;;10.80;99.90;;;;;;2077350;28;20112;-73
2021/12/29 04:04:04;;;;;;;12.13;11.02;;;10.80;99.90;;;;;;2080569;28;20481;-72
2021/12/29 04:05:05;;;;;;;11.77;10.65;;;10.80;99.90;;;;;;2085210;28;20427;-72
2021/12/29 04:06:06;;;;;;;12.82;11.40;;;10.80;99.90;;;;;;2088031;28;20697;-72
2021/12/29 04:07:06;;;;;;;12.48;11.27;;;10.80;99.90;;;;;;2080515;28;20051;-72
2021/12/29 04:08:08;;;;;;;11.52;10.43;;;10.80;99.90;;;;;;2080187;28;20037;-72
2021/12/29 04:09:08;;;;;;;11.85;10.65;;;10.80;99.90;;;;;;2087727;28;20025;-72
2021/12/29 04:10:10;;;;;;;10.90;9.85;;;10.80;99.90;;;;;;2080774;28;20104;-72
2021/12/29 04:11:10;;;;;;;11.63;10.52;;;10.80;99.90;;;;;;2080848;28;20033;-72
2021/12/29 04:12:11;;;;;;;11.98;9.98;;;10.80;99.90;;;;;;2080132;28;20076;-72
2021/12/29 04:13:12;;;;;;;12.00;10.15;;;10.80;99.90;;;;;;2083978;28;20024;-73
2021/12/29 04:14:12;;;;;;;12.55;10.43;;;10.80;99.90;;;;;;2079863;28;20025;-73
2021/12/29 04:15:15;;;;;;;11.25;10.15;;;10.80;99.90;;;;;;2079917;28;20100;-72
2021/12/29 04:16:18;;;;;;;12.77;11.05;;;10.80;99.90;;;;;;2083481;28;20488;-73
2021/12/29 04:17:25;;;;;;;10.05;9.15;;;10.80;99.90;;;;;;2089278;28;20025;-73
2021/12/29 04:18:30;;;;;;;12.13;10.95;;;10.80;99.90;;;;;;2083008;28;20055;-73
2021/12/29 04:19:40;;;;;;;13.65;10.75;;;10.80;99.90;;;;;;2079366;28;20104;-73
2021/12/29 04:20:57;;;;;;;12.23;11.07;;;10.80;99.90;;;;;;2077617;28;20496;-73
2021/12/29 04:21:59;;;;;;;12.10;10.88;;;10.80;99.90;;;;;;2080836;28;20738;-73
2021/12/29 04:23:00;;;;;;;12.95;11.55;;;10.80;99.90;;;;;;2089640;28;20048;-73
2021/12/29 04:24:01;;;;;;;14.30;12.63;;;10.80;99.90;;;;;;2080744;28;20091;-72
2021/12/29 04:25:02;;;;;;;14.82;12.15;;;10.80;99.90;;;;;;2087801;28;20089;-72
2021/12/29 04:26:07;;;;;;;14.30;12.95;;;10.80;99.90;;;;;;2088196;28;20021;-73
2021/12/29 04:27:08;;;;;;;13.82;12.43;;;10.80;99.90;;;;;;2088303;28;20428;-72
2021/12/29 04:28:14;;;;;;;14.68;13.18;;;10.80;99.90;;;;;;2087888;28;20021;-72
2021/12/29 04:29:14;;;;;;;15.38;13.80;;;10.80;99.90;;;;;;2088725;28;20025;-72
2021/12/29 04:30:15;;;;;;;15.52;13.93;;;10.80;99.90;;;;;;2089031;28;20032;-72
2021/12/29 04:31:16;;;;;;;15.68;14.13;;;10.80;99.90;;;;;;2088806;28;20041;-72
2021/12/29 04:32:18;;;;;;;16.92;14.40;;;10.80;99.90;;;;;;2089276;28;20029;-73
2021/12/29 04:33:18;;;;;;;17.30;14.65;;;10.90;99.90;;;;;;2088320;28;20033;-72
2021/12/29 04:34:19;;;;;;;16.65;14.93;;;10.80;99.90;;;;;;2080654;28;20664;-72
2021/12/29 04:35:20;;;;;;;16.98;15.18;;;10.80;99.90;;;;;;2080801;28;20074;-72
2021/12/29 04:36:24;;;;;;;16.13;14.52;;;10.90;99.90;;;;;;2080992;28;20025;-72
2021/12/29 04:37:25;;;;;;;16.10;14.48;;;10.80;99.90;;;;;;2080730;28;20033;-72
2021/12/29 04:38:26;;;;;;;17.35;15.27;;;10.80;99.90;;;;;;2080818;28;20029;-72
2021/12/29 04:39:26;;;;;;;16.52;14.82;;;10.80;99.90;;;;;;2086288;28;20029;-72
2021/12/29 04:40:27;;;;;;;16.67;15.07;;;10.80;99.90;;;;;;2088957;28;20029;-73
2021/12/29 04:41:28;;;;;;;18.17;15.45;;;10.80;99.90;;;;;;2088836;28;20331;-72
2021/12/29 04:42:29;;;;;;;17.25;15.32;;;10.80;99.90;;;;;;2080155;28;20022;-72
2021/12/29 04:43:29;;;;;;;17.38;15.70;;;10.80;99.90;;;;;;2080806;28;20465;-72
2021/12/29 04:44:30;;;;;;;16.85;15.15;;;10.90;99.90;;;;;;2087977;28;20092;-72
2021/12/29 04:45:31;;;;;;;17.75;15.95;;;10.80;99.90;;;;;;2088883;28;20029;-72
2021/12/29 04:46:38;;;;;;;18.42;15.57;;;10.80;99.90;;;;;;2088627;28;20028;-72
2021/12/29 04:47:41;;;;;;;18.27;15.55;;;10.80;99.90;;;;;;2083100;28;20017;-72
2021/12/29 04:48:49;;;;;;;16.80;15.00;;;10.80;99.90;;;;;;2080642;28;20038;-73
2021/12/29 04:49:50;;;;;;;17.17;15.00;;;10.80;99.90;;;;;;2080705;28;20049;-72
2021/12/29 04:50:54;;;;;;;17.75;15.60;;;10.80;99.90;;;;;;2080767;28;20049;-72
2021/12/29 04:52:02;;;;;;;17.77;16.17;;;10.80;99.90;;;;;;2080511;28;20053;-73
2021/12/29 04:53:05;;;;;;;15.75;14.25;;;10.80;99.90;;;;;;2080554;28;20049;-73
2021/12/29 04:54:07;;;;;;;16.60;14.70;;;10.80;99.90;;;;;;2080645;28;20100;-72
2021/12/29 04:55:08;;;;;;;15.77;14.18;;;10.80;99.90;;;;;;2080674;28;20152;-73
2021/12/29 04:56:08;;;;;;;16.25;14.65;;;10.80;99.90;;;;;;2080607;28;20050;-72
2021/12/29 04:57:09;;;;;;;16.27;14.60;;;10.80;99.90;;;;;;2081701;28;20132;-72
2021/12/29 04:58:10;;;;;;;16.20;14.73;;;10.80;99.90;;;;;;2079143;28;20041;-73
2021/12/29 04:59:11;;;;;;;17.80;14.90;;;10.80;99.90;;;;;;2086880;28;20097;-72
2021/12/29 05:00:12;;;;;;;16.02;14.48;;;10.80;99.90;;;;;;2088928;28;20043;-73
2021/12/29 05:01:13;;;;;;;16.17;14.57;;;10.90;99.90;;;;;;2083932;28;20373;-72
2021/12/29 05:02:13;;;;;;;19.45;16.27;;;10.90;99.90;;;;;;2083557;28;20021;-72
2021/12/29 05:03:14;;;;;;;17.20;15.50;;;10.80;99.90;;;;;;2080316;28;20053;-72
2021/12/29 05:04:29;;;;;;;17.60;15.82;;;10.90;99.90;;;;;;2087571;28;20071;-72
2021/12/29 05:09:11;;;;;;;13.57;12.27;;;10.80;99.90;;;;;;2072446;28;20029;-72
2021/12/29 05:10:12;;;;;;;14.00;12.60;;;10.90;99.90;;;;;;2077173;28;20045;-72
2021/12/29 05:11:14;;;;;;;13.00;11.70;;;10.80;99.90;;;;;;2080650;28;20033;-72
2021/12/29 05:12:14;;;;;;;12.55;11.27;;;10.80;99.90;;;;;;2088879;28;20040;-73
2021/12/29 05:13:15;;;;;;;12.80;10.60;;;10.80;99.90;;;;;;2087999;28;20047;-72
2021/12/29 05:14:15;;;;;;;10.73;9.65;;;10.80;99.90;;;;;;2088775;28;20391;-72
2021/12/29 05:15:16;;;;;;;10.40;9.35;;;10.80;99.90;;;;;;2081023;28;20095;-73
2021/12/29 05:16:16;;;;;;;9.32;7.93;;;10.80;99.90;;;;;;2080236;28;20029;-73
2021/12/29 05:17:17;;;;;;;8.18;7.47;;;10.80;99.90;;;;;;2080448;28;20563;-73
2021/12/29 05:18:18;;;;;;;7.85;7.05;;;10.80;99.90;;;;;;2076299;28;20033;-74
2021/12/29 05:19:18;;;;;;;10.43;6.18;;;10.80;99.90;;;;;;2073098;28;20053;-72
2021/12/29 05:20:19;;;;;;;7.07;6.30;;;10.70;99.90;;;;;;2080537;28;20128;-74
2021/12/29 05:21:19;;;;;;;9.95;5.90;;;10.80;99.90;;;;;;2080128;28;20101;-72
2021/12/29 05:22:20;;;;;;;6.78;5.70;;;10.80;99.90;;;;;;2080508;28;20405;-73